createdAt,value
2023-04-04T00:01:32.891Z,93206.19
2023-04-04T00:03:34.658Z,93205.81
2023-04-04T00:05:36.526Z,93201.09
2023-04-04T00:07:38.114Z,93214.03
2023-04-04T00:09:39.586Z,93205.44
2023-04-04T00:11:42.612Z,93205.88
2023-04-04T00:13:45.528Z,93207.84
2023-04-04T00:15:47.135Z,93204.34
2023-04-04T00:17:48.944Z,93211.19
2023-04-04T00:19:50.684Z,93213.78
2023-04-04T00:21:52.209Z,93207.94
2023-04-04T00:23:54.681Z,93204.94
2023-04-04T00:25:56.179Z,93207.63
2023-04-04T00:28:00.976Z,93197.25
2023-04-04T00:30:02.891Z,93193.00
2023-04-04T00:32:04.421Z,93193.81
2023-04-04T00:34:06.100Z,93187.22
2023-04-04T00:36:07.682Z,93174.88
2023-04-04T00:38:09.245Z,93179.97
2023-04-04T00:40:10.785Z,93178.38
2023-04-04T00:42:12.253Z,93183.09
2023-04-04T00:44:13.760Z,93175.34
2023-04-04T00:46:17.765Z,93179.25
2023-04-04T00:48:20.642Z,93176.53
2023-04-04T00:50:22.117Z,93161.81
2023-04-04T00:52:23.895Z,93163.44
2023-04-04T00:54:25.528Z,93163.25
2023-04-04T00:56:26.997Z,93163.63
2023-04-04T00:58:28.574Z,93159.81
2023-04-04T01:00:30.047Z,93162.69
2023-04-04T01:02:31.990Z,93164.81
2023-04-04T01:04:33.741Z,93168.84
2023-04-04T01:06:35.218Z,93172.00
2023-04-04T01:08:38.097Z,93181.28
2023-04-04T01:10:39.971Z,93182.84
2023-04-04T01:12:42.219Z,93185.47
2023-04-04T01:14:43.682Z,93194.44
2023-04-04T01:16:45.160Z,93187.56
2023-04-04T01:18:46.968Z,93193.88
2023-04-04T01:20:58.200Z,93193.75
2023-04-04T01:22:59.690Z,93199.03
2023-04-04T01:25:01.691Z,93189.50
2023-04-04T01:27:03.261Z,93192.59
2023-04-04T01:29:04.823Z,93194.03
2023-04-04T01:31:07.125Z,93189.06
2023-04-04T01:33:10.475Z,93192.28
2023-04-04T01:35:44.658Z,93188.13
2023-04-04T01:38:06.147Z,93173.69
2023-04-04T01:40:17.348Z,93178.59
2023-04-04T01:42:20.184Z,93179.78
2023-04-04T01:44:21.729Z,93169.09
2023-04-04T01:46:23.373Z,93170.06
2023-04-04T01:48:24.936Z,93166.59
2023-04-04T01:50:27.144Z,93157.47
2023-04-04T01:52:29.304Z,93152.69
2023-04-04T01:54:32.364Z,93149.72
2023-04-04T01:56:34.155Z,93143.16
2023-04-04T01:58:35.790Z,93146.34
2023-04-04T02:00:37.270Z,93141.72
2023-04-04T02:02:38.809Z,93143.78
2023-04-04T02:04:40.330Z,93140.00
2023-04-04T02:06:42.337Z,93145.69
2023-04-04T02:08:43.860Z,93146.63
2023-04-04T02:10:45.334Z,93148.00
2023-04-04T02:12:47.384Z,93150.03
2023-04-04T02:14:49.605Z,93151.59
2023-04-04T02:16:51.692Z,93148.28
2023-04-04T02:18:53.145Z,93145.06
2023-04-04T02:20:57.740Z,93136.97
2023-04-04T02:22:59.235Z,93144.41
2023-04-04T02:25:02.855Z,93138.78
2023-04-04T02:27:04.734Z,93134.41
2023-04-04T02:29:06.398Z,93138.66
2023-04-04T02:31:07.913Z,93135.97
2023-04-04T02:33:09.435Z,93138.59
2023-04-04T02:35:10.929Z,93134.56
2023-04-04T02:37:12.682Z,93140.34
2023-04-04T02:39:14.185Z,93138.78
2023-04-04T02:41:15.669Z,93148.09
2023-04-04T02:43:17.164Z,93134.00
2023-04-04T02:45:18.679Z,93143.03
2023-04-04T02:47:20.180Z,93148.38
2023-04-04T02:49:21.667Z,93151.34
2023-04-04T02:51:23.117Z,93145.38
2023-04-04T02:53:24.678Z,93149.66
2023-04-04T02:55:26.654Z,93144.66
2023-04-04T02:57:28.482Z,93148.25
2023-04-04T02:59:29.993Z,93150.47
2023-04-04T03:01:32.425Z,93150.69
2023-04-04T03:03:34.283Z,93155.16
2023-04-04T03:05:35.864Z,93154.06
2023-04-04T03:07:37.441Z,93156.84
2023-04-04T03:09:39.063Z,93159.47
2023-04-04T03:11:40.508Z,93165.44
2023-04-04T03:13:42.125Z,93165.88
2023-04-04T03:15:43.853Z,93160.88
2023-04-04T03:17:49.031Z,93166.69
2023-04-04T03:19:50.535Z,93158.75
2023-04-04T03:21:52.031Z,93164.63
2023-04-04T03:23:53.638Z,93157.31
2023-04-04T03:25:55.286Z,93160.88
2023-04-04T03:27:56.822Z,93159.16
2023-04-04T03:29:59.255Z,93157.13
2023-04-04T03:32:01.042Z,93164.97
2023-04-04T03:34:02.650Z,93169.03
2023-04-04T03:36:11.041Z,93157.28
2023-04-04T03:38:13.196Z,93165.28
2023-04-04T03:40:14.921Z,93165.72
2023-04-04T03:42:16.921Z,93165.28
2023-04-04T03:44:18.406Z,93164.50
2023-04-04T03:46:20.006Z,93157.69
2023-04-04T03:48:21.663Z,93162.13
2023-04-04T03:50:23.156Z,93161.53
2023-04-04T03:52:24.594Z,93168.81
2023-04-04T03:54:27.884Z,93161.53
2023-04-04T03:56:30.249Z,93158.31
2023-04-04T03:58:31.873Z,93170.69
2023-04-04T04:00:33.614Z,93161.06
2023-04-04T04:02:35.125Z,93161.41
2023-04-04T04:04:36.731Z,93157.84
2023-04-04T04:06:38.266Z,93161.94
2023-04-04T04:08:39.807Z,93162.94
2023-04-04T04:10:41.614Z,93160.72
2023-04-04T04:12:43.244Z,93164.16
2023-04-04T04:14:44.733Z,93164.16
2023-04-04T04:16:46.284Z,93167.75
2023-04-04T04:18:48.181Z,93162.47
2023-04-04T04:20:49.741Z,93169.50
2023-04-04T04:22:53.873Z,93165.16
2023-04-04T04:24:55.931Z,93170.94
2023-04-04T04:26:58.025Z,93172.31
2023-04-04T04:28:59.597Z,93177.72
2023-04-04T04:31:07.702Z,93181.53
2023-04-04T04:33:09.385Z,93181.28
2023-04-04T04:35:11.137Z,93192.94
2023-04-04T04:37:12.918Z,93188.13
2023-04-04T04:39:14.411Z,93187.72
2023-04-04T04:41:15.936Z,93191.38
2023-04-04T04:43:17.430Z,93198.22
2023-04-04T04:45:18.918Z,93200.84
2023-04-04T04:47:20.522Z,93201.66
2023-04-04T04:49:22.498Z,93201.66
2023-04-04T04:51:24.076Z,93207.69
2023-04-04T04:53:25.927Z,93208.50
2023-04-04T04:55:27.747Z,93209.31
2023-04-04T04:57:29.235Z,93217.56
2023-04-04T04:59:30.987Z,93216.97
2023-04-04T05:01:32.926Z,93219.75
2023-04-04T05:03:35.095Z,93215.38
2023-04-04T05:05:36.671Z,93224.44
2023-04-04T05:07:38.182Z,93227.44
2023-04-04T05:09:39.941Z,93229.09
2023-04-04T05:11:41.471Z,93220.56
2023-04-04T05:13:42.946Z,93225.78
2023-04-04T05:15:46.466Z,93224.44
2023-04-04T05:17:47.959Z,93229.34
2023-04-04T05:19:49.535Z,93234.41
2023-04-04T05:21:51.306Z,93239.22
2023-04-04T05:23:52.943Z,93238.03
2023-04-04T05:25:54.470Z,93237.06
2023-04-04T05:27:57.827Z,93241.31
2023-04-04T05:29:59.278Z,93239.78
2023-04-04T05:32:00.776Z,93248.72
2023-04-04T05:34:08.218Z,93249.56
2023-04-04T05:36:11.430Z,93243.56
2023-04-04T05:38:13.362Z,93239.53
2023-04-04T05:40:14.918Z,93248.41
2023-04-04T05:42:16.976Z,93246.88
2023-04-04T05:44:18.516Z,93250.47
2023-04-04T05:46:20.101Z,93244.59
2023-04-04T05:48:21.616Z,93254.69
2023-04-04T05:50:23.123Z,93260.69
2023-04-04T05:52:24.874Z,93256.84
2023-04-04T05:54:27.132Z,93256.84
2023-04-04T05:56:28.935Z,93260.31
2023-04-04T05:58:30.427Z,93258.97
2023-04-04T06:00:32.340Z,93256.94
2023-04-04T06:02:34.074Z,93257.13
2023-04-04T06:04:35.648Z,93267.38
2023-04-04T06:06:37.383Z,93265.56
2023-04-04T06:08:50.606Z,93264.69
2023-04-04T06:10:56.078Z,93262.91
2023-04-04T06:12:57.638Z,93258.94
2023-04-04T06:14:59.146Z,93268.75
2023-04-04T06:17:00.904Z,93265.22
2023-04-04T06:19:02.465Z,93271.06
2023-04-04T06:21:04.012Z,93274.09
2023-04-04T06:23:05.788Z,93278.91
2023-04-04T06:25:10.384Z,93275.19
2023-04-04T06:27:11.956Z,93272.44
2023-04-04T06:29:13.444Z,93273.84
2023-04-04T06:31:14.907Z,93277.09
2023-04-04T06:33:16.521Z,93288.69
2023-04-04T06:35:20.312Z,93296.84
2023-04-04T06:37:22.118Z,93309.88
2023-04-04T06:39:23.584Z,93316.31
2023-04-04T06:41:25.040Z,93320.25
2023-04-04T06:43:27.366Z,93330.41
2023-04-04T06:45:28.979Z,93351.22
2023-04-04T06:47:30.535Z,93352.66
2023-04-04T06:49:32.041Z,93366.69
2023-04-04T06:51:33.915Z,93350.91
2023-04-04T06:53:35.517Z,93355.94
2023-04-04T06:55:37.123Z,93351.06
2023-04-04T06:57:39.356Z,93353.34
2023-04-04T06:59:42.380Z,93362.09
2023-04-04T07:01:45.572Z,93369.06
2023-04-04T07:03:47.066Z,93381.53
2023-04-04T07:05:48.518Z,93382.38
2023-04-04T07:07:52.850Z,93396.75
2023-04-04T07:09:54.326Z,93415.56
2023-04-04T07:11:56.055Z,93409.72
2023-04-04T07:13:57.507Z,93400.81
2023-04-04T07:15:58.978Z,93416.28
2023-04-04T07:18:00.629Z,93427.13
2023-04-04T07:20:04.678Z,93424.78
2023-04-04T07:22:06.694Z,93432.91
2023-04-04T07:24:08.202Z,93445.66
2023-04-04T07:26:09.723Z,93441.97
2023-04-04T07:28:13.219Z,93453.72
2023-04-04T07:30:15.629Z,93454.63
2023-04-04T07:32:17.687Z,93456.41
2023-04-04T07:34:20.164Z,93461.66
2023-04-04T07:36:21.671Z,93467.97
2023-04-04T07:38:23.226Z,93471.75
2023-04-04T07:40:24.802Z,93476.00
2023-04-04T07:42:26.808Z,93474.41
2023-04-04T07:44:28.309Z,93476.59
2023-04-04T07:46:30.228Z,93478.41
2023-04-04T07:48:31.750Z,93478.25
2023-04-04T07:50:33.331Z,93471.31
2023-04-04T07:52:34.804Z,93476.69
2023-04-04T07:54:36.328Z,93478.47
2023-04-04T07:56:37.822Z,93474.09
2023-04-04T07:58:39.297Z,93470.66
2023-04-04T08:00:41.369Z,93493.63
2023-04-04T08:02:43.602Z,93501.03
2023-04-04T08:04:45.489Z,93498.19
2023-04-04T08:06:47.653Z,93493.81
2023-04-04T08:08:49.857Z,93502.56
2023-04-04T08:10:51.410Z,93508.84
2023-04-04T08:12:53.324Z,93504.66
2023-04-04T08:14:54.820Z,93508.59
2023-04-04T08:16:56.992Z,93514.84
2023-04-04T08:19:00.151Z,93523.22
2023-04-04T08:21:01.759Z,93518.56
2023-04-04T08:23:03.336Z,93525.44
2023-04-04T08:25:05.907Z,93525.44
2023-04-04T08:27:07.471Z,93530.41
2023-04-04T08:29:09.054Z,93530.63
2023-04-04T08:31:12.578Z,93546.91
2023-04-04T08:33:14.222Z,93529.72
2023-04-04T08:35:15.779Z,93537.03
2023-04-04T08:37:17.657Z,93545.66
2023-04-04T08:39:19.224Z,93551.34
2023-04-04T08:41:20.741Z,93545.16
2023-04-04T08:43:22.544Z,93539.81
2023-04-04T08:45:24.057Z,93542.09
2023-04-04T08:47:25.658Z,93547.59
2023-04-04T08:49:27.618Z,93553.56
2023-04-04T08:51:30.006Z,93557.09
2023-04-04T08:53:32.376Z,93548.50
2023-04-04T08:55:34.003Z,93564.41
2023-04-04T08:57:36.084Z,93569.66
2023-04-04T08:59:37.973Z,93566.25
2023-04-04T09:01:39.620Z,93566.44
2023-04-04T09:03:41.062Z,93569.06
2023-04-04T09:05:43.771Z,93552.63
2023-04-04T09:07:45.580Z,93573.91
2023-04-04T09:09:47.154Z,93570.97
2023-04-04T09:11:48.728Z,93578.06
2023-04-04T09:13:51.094Z,93577.09
2023-04-04T09:15:57.421Z,93580.72
2023-04-04T09:17:58.942Z,93571.66
2023-04-04T09:20:06.674Z,93576.63
2023-04-04T09:22:09.088Z,93578.06
2023-04-04T09:24:10.558Z,93578.94
2023-04-04T09:26:13.434Z,93582.53
2023-04-04T09:28:15.724Z,93581.91
2023-04-04T09:30:17.257Z,93587.84
2023-04-04T09:32:18.699Z,93588.13
2023-04-04T09:34:20.328Z,93587.78
2023-04-04T09:36:22.547Z,93588.78
2023-04-04T09:38:24.263Z,93594.75
2023-04-04T09:40:28.196Z,93589.34
2023-04-04T09:42:29.833Z,93590.25
2023-04-04T09:44:34.090Z,93596.06
2023-04-04T09:46:38.294Z,93597.13
2023-04-04T09:48:40.330Z,93592.00
2023-04-04T09:50:47.861Z,93603.47
2023-04-04T09:52:50.009Z,93596.06
2023-04-04T09:55:01.507Z,93605.34
2023-04-04T09:57:03.104Z,93596.56
2023-04-04T09:59:05.529Z,93599.50
2023-04-04T10:01:10.149Z,93596.59
2023-04-04T10:03:12.404Z,93592.97
2023-04-04T10:05:14.342Z,93587.50
2023-04-04T10:07:16.225Z,93594.34
2023-04-04T10:09:17.945Z,93584.06
2023-04-04T10:11:29.839Z,93593.13
2023-04-04T10:13:32.433Z,93600.50
2023-04-04T10:15:38.395Z,93615.09
2023-04-04T10:17:41.216Z,93609.31
2023-04-04T10:19:42.818Z,93612.34
2023-04-04T10:21:44.297Z,93617.44
2023-04-04T10:23:46.601Z,93617.34
2023-04-04T10:25:49.338Z,93617.22
2023-04-04T10:27:51.845Z,93622.22
2023-04-04T10:29:53.473Z,93615.41
2023-04-04T10:32:00.712Z,93622.13
2023-04-04T10:34:14.203Z,93621.88
2023-04-04T10:36:17.137Z,93624.47
2023-04-04T10:38:18.896Z,93626.34
2023-04-04T10:40:20.655Z,93639.91
2023-04-04T10:42:22.169Z,93642.63
2023-04-04T10:44:31.902Z,93640.16
2023-04-04T10:46:33.433Z,93643.28
2023-04-04T10:48:34.951Z,93632.50
2023-04-04T10:50:36.769Z,93649.75
2023-04-04T10:52:39.666Z,93635.19
2023-04-04T10:54:41.461Z,93643.13
2023-04-04T10:56:43.169Z,93660.13
2023-04-04T10:58:44.720Z,93667.06
2023-04-04T11:00:49.295Z,93657.09
2023-04-04T11:02:58.096Z,93657.50
2023-04-04T11:05:10.683Z,93673.38
2023-04-04T11:07:18.657Z,93659.84
2023-04-04T11:09:42.916Z,93667.75
2023-04-04T11:12:07.182Z,93651.16
2023-04-04T11:14:10.031Z,93662.69
2023-04-04T11:16:15.652Z,93665.84
2023-04-04T11:18:30.593Z,93663.81
2023-04-04T11:20:35.900Z,93672.25
2023-04-04T11:22:38.537Z,93683.97
2023-04-04T11:24:43.024Z,93687.94
2023-04-04T11:26:46.183Z,93687.72
2023-04-04T11:28:48.548Z,93684.88
2023-04-04T11:30:50.258Z,93687.69
2023-04-04T11:33:03.907Z,93690.72
2023-04-04T11:35:08.416Z,93681.41
2023-04-04T11:37:17.716Z,93683.78
2023-04-04T11:39:31.808Z,93678.28
2023-04-04T11:42:05.746Z,93673.00
2023-04-04T11:44:10.493Z,93688.16
2023-04-04T11:46:12.034Z,93680.94
2023-04-04T11:48:17.505Z,93691.88
2023-04-04T11:50:19.475Z,93691.47
2023-04-04T11:52:23.877Z,93686.38
2023-04-04T11:54:26.430Z,93690.97
2023-04-04T11:56:27.888Z,93685.84
2023-04-04T11:58:29.593Z,93691.50
2023-04-04T12:00:31.964Z,93689.28
2023-04-04T12:02:34.974Z,93691.50
2023-04-04T12:04:37.888Z,93682.06
2023-04-04T12:06:40.090Z,93684.69
2023-04-04T12:08:42.457Z,93694.16
2023-04-04T12:10:44.513Z,93692.34
2023-04-04T12:12:46.025Z,93696.09
2023-04-04T12:14:47.806Z,93701.34
2023-04-04T12:16:50.361Z,93689.94
2023-04-04T12:18:52.211Z,93699.34
2023-04-04T12:20:54.273Z,93698.38
2023-04-04T12:22:56.214Z,93701.47
2023-04-04T12:24:59.038Z,93703.50
2023-04-04T12:27:01.412Z,93709.03
2023-04-04T12:29:02.907Z,93710.22
2023-04-04T12:31:06.672Z,93714.34
2023-04-04T12:33:08.298Z,93717.03
2023-04-04T12:35:10.488Z,93712.91
2023-04-04T12:37:11.966Z,93702.53
2023-04-04T12:39:14.982Z,93712.97
2023-04-04T12:41:17.400Z,93720.22
2023-04-04T12:43:20.837Z,93714.94
2023-04-04T12:45:22.948Z,93707.00
2023-04-04T12:47:26.371Z,93717.16
2023-04-04T12:49:29.511Z,93719.88
2023-04-04T12:51:32.841Z,93718.19
2023-04-04T12:53:35.386Z,93727.00
2023-04-04T12:55:37.044Z,93719.66
2023-04-04T12:57:39.317Z,93721.94
2023-04-04T12:59:41.091Z,93723.00
2023-04-04T13:01:42.625Z,93720.50
2023-04-04T13:03:44.196Z,93723.63
2023-04-04T13:05:47.326Z,93734.97
2023-04-04T13:07:48.870Z,93725.41
2023-04-04T13:09:54.513Z,93731.03
2023-04-04T13:11:57.164Z,93735.34
2023-04-04T13:14:02.808Z,93729.53
2023-04-04T13:16:05.477Z,93744.66
2023-04-04T13:18:13.646Z,93748.91
2023-04-04T13:20:16.192Z,93749.47
2023-04-04T13:22:17.790Z,93750.09
2023-04-04T13:24:19.333Z,93753.38
2023-04-04T13:26:21.740Z,93751.94
2023-04-04T13:28:23.208Z,93754.19
2023-04-04T13:30:24.732Z,93755.56
2023-04-04T13:32:26.377Z,93763.22
2023-04-04T13:34:27.961Z,93764.00
2023-04-04T13:36:29.455Z,93772.69
2023-04-04T13:38:31.366Z,93765.59
2023-04-04T13:40:32.873Z,93767.13
2023-04-04T13:42:35.509Z,93775.13
2023-04-04T13:44:37.166Z,93777.56
2023-04-04T13:46:38.731Z,93779.69
2023-04-04T13:48:40.464Z,93782.59
2023-04-04T13:50:44.066Z,93782.16
2023-04-04T13:52:45.620Z,93790.31
2023-04-04T13:54:47.132Z,93795.44
2023-04-04T13:56:48.697Z,93786.47
2023-04-04T13:58:51.081Z,93786.88
2023-04-04T14:00:52.740Z,93793.91
2023-04-04T14:02:56.572Z,93803.03
2023-04-04T14:04:58.906Z,93807.16
2023-04-04T14:07:00.406Z,93807.03
2023-04-04T14:09:01.896Z,93804.31
2023-04-04T14:11:03.540Z,93805.38
2023-04-04T14:13:05.008Z,93803.38
2023-04-04T14:15:09.431Z,93810.69
2023-04-04T14:17:11.520Z,93818.47
2023-04-04T14:19:13.120Z,93829.25
2023-04-04T14:21:14.571Z,93819.88
2023-04-04T14:23:16.196Z,93834.75
2023-04-04T14:25:17.725Z,93836.41
2023-04-04T14:27:19.263Z,93832.00
2023-04-04T14:29:22.115Z,93829.44
2023-04-04T14:31:23.717Z,93834.06
2023-04-04T14:33:25.215Z,93831.09
2023-04-04T14:35:26.726Z,93837.38
2023-04-04T14:37:28.283Z,93843.34
2023-04-04T14:39:29.803Z,93846.34
2023-04-04T14:41:31.550Z,93853.16
2023-04-04T14:43:33.149Z,93850.44
2023-04-04T14:45:34.753Z,93847.56
2023-04-04T14:47:36.503Z,93852.19
2023-04-04T14:49:38.135Z,93850.44
2023-04-04T14:51:39.639Z,93859.03
2023-04-04T14:53:41.448Z,93869.50
2023-04-04T14:55:42.991Z,93875.38
2023-04-04T14:58:01.435Z,93860.50
2023-04-04T15:00:04.153Z,93865.50
2023-04-04T15:02:06.204Z,93885.84
2023-04-04T15:04:07.825Z,93874.41
2023-04-04T15:06:09.416Z,93875.34
2023-04-04T15:08:10.892Z,93874.94
2023-04-04T15:10:12.675Z,93881.75
2023-04-04T15:12:14.206Z,93870.47
2023-04-04T15:14:15.834Z,93875.34
2023-04-04T15:16:17.728Z,93880.41
2023-04-04T15:18:19.246Z,93904.22
2023-04-04T15:20:20.970Z,93889.25
2023-04-04T15:22:22.540Z,93887.22
2023-04-04T15:24:24.071Z,93885.72
2023-04-04T15:26:26.108Z,93891.84
2023-04-04T15:28:28.800Z,93891.56
2023-04-04T15:30:31.086Z,93905.88
2023-04-04T15:32:32.629Z,93899.19
2023-04-04T15:34:34.154Z,93901.53
2023-04-04T15:36:36.715Z,93900.72
2023-04-04T15:38:38.302Z,93903.25
2023-04-04T15:40:39.959Z,93902.28
2023-04-04T15:42:41.923Z,93907.19
2023-04-04T15:44:44.300Z,93899.88
2023-04-04T15:46:45.971Z,93907.34
2023-04-04T15:48:48.285Z,93912.78
2023-04-04T15:50:49.765Z,93917.59
2023-04-04T15:52:51.365Z,93919.44
2023-04-04T15:54:52.884Z,93920.34
2023-04-04T15:56:54.623Z,93915.41
2023-04-04T15:58:56.191Z,93922.75
2023-04-04T16:00:58.275Z,93930.97
2023-04-04T16:02:59.936Z,93933.53
2023-04-04T16:05:01.716Z,93928.88
2023-04-04T16:07:03.229Z,93937.50
2023-04-04T16:09:04.768Z,93928.16
2023-04-04T16:11:06.210Z,93943.72
2023-04-04T16:13:07.683Z,93936.16
2023-04-04T16:15:09.393Z,93939.38
2023-04-04T16:17:10.998Z,93943.28
2023-04-04T16:19:14.292Z,93940.41
2023-04-04T16:21:16.267Z,93955.16
2023-04-04T16:23:18.079Z,93951.19
2023-04-04T16:25:20.260Z,93949.34
2023-04-04T16:27:21.830Z,93953.72
2023-04-04T16:29:23.414Z,93947.16
2023-04-04T16:31:25.085Z,93959.56
2023-04-04T16:33:26.528Z,93951.31
2023-04-04T16:35:28.148Z,93953.69
2023-04-04T16:37:29.744Z,93969.53
2023-04-04T16:39:31.330Z,93963.88
2023-04-04T16:41:34.439Z,93964.97
2023-04-04T16:43:36.069Z,93963.13
2023-04-04T16:45:37.538Z,93971.13
2023-04-04T16:47:39.604Z,93962.44
2023-04-04T16:49:41.484Z,93963.19
2023-04-04T16:51:43.306Z,93972.31
2023-04-04T16:53:44.885Z,93974.41
2023-04-04T16:55:46.414Z,93985.03
2023-04-04T16:57:47.961Z,93982.38
2023-04-04T16:59:49.435Z,93982.38
2023-04-04T17:01:50.923Z,93980.44
2023-04-04T17:03:52.502Z,93985.41
2023-04-04T17:05:59.681Z,93996.09
2023-04-04T17:08:01.317Z,93992.72
2023-04-04T17:10:03.152Z,93982.94
2023-04-04T17:12:04.740Z,93998.22
2023-04-04T17:14:06.299Z,94012.13
2023-04-04T17:16:08.588Z,94005.31
2023-04-04T17:18:10.252Z,94003.81
2023-04-04T17:20:17.854Z,94007.94
2023-04-04T17:22:19.690Z,94009.47
2023-04-04T17:24:23.252Z,94009.63
2023-04-04T17:26:24.784Z,94030.34
2023-04-04T17:28:26.317Z,94029.31
2023-04-04T17:30:28.067Z,94020.38
2023-04-04T17:32:30.298Z,94024.47
2023-04-04T17:34:31.819Z,94025.94
2023-04-04T17:36:34.141Z,94027.56
2023-04-04T17:38:36.499Z,94037.16
2023-04-04T17:40:40.839Z,94055.38
2023-04-04T17:42:42.682Z,94045.59
2023-04-04T17:44:44.190Z,94048.31
2023-04-04T17:46:46.313Z,94049.97
2023-04-04T17:48:48.240Z,94053.50
2023-04-04T17:50:50.176Z,94063.50
2023-04-04T17:52:51.726Z,94063.31
2023-04-04T17:54:53.439Z,94053.06
2023-04-04T17:56:55.103Z,94064.13
2023-04-04T17:58:57.657Z,94057.81
2023-04-04T18:01:01.382Z,94064.91
2023-04-04T18:03:03.093Z,94062.94
2023-04-04T18:05:05.371Z,94074.91
2023-04-04T18:07:08.489Z,94075.72
2023-04-04T18:09:10.644Z,94074.19
2023-04-04T18:11:12.475Z,94073.25
2023-04-04T18:13:13.935Z,94075.59
2023-04-04T18:15:15.414Z,94080.19
2023-04-04T18:17:17.555Z,94077.38
2023-04-04T18:19:19.241Z,94070.81
2023-04-04T18:21:20.936Z,94085.22
2023-04-04T18:23:24.274Z,94084.06
2023-04-04T18:25:26.470Z,94074.56
2023-04-04T18:27:28.124Z,94082.22
2023-04-04T18:29:31.445Z,94084.53
2023-04-04T18:31:33.112Z,94086.75
2023-04-04T18:33:35.321Z,94085.91
2023-04-04T18:35:36.929Z,94094.94
2023-04-04T18:37:38.444Z,94084.56
2023-04-04T18:39:39.960Z,94097.22
2023-04-04T18:41:41.555Z,94091.09
2023-04-04T18:43:43.307Z,94094.34
2023-04-04T18:45:45.454Z,94101.81
2023-04-04T18:47:47.062Z,94099.34
2023-04-04T18:49:48.602Z,94098.00
2023-04-04T18:51:50.069Z,94094.72
2023-04-04T18:53:51.915Z,94109.25
2023-04-04T18:55:53.412Z,94108.78
2023-04-04T18:57:54.916Z,94105.03
2023-04-04T18:59:56.389Z,94109.97
2023-04-04T19:01:58.171Z,94107.03
2023-04-04T19:03:59.777Z,94113.94
2023-04-04T19:06:01.610Z,94111.47
2023-04-04T19:08:03.451Z,94119.06
2023-04-04T19:10:05.589Z,94118.38
2023-04-04T19:12:10.234Z,94135.66
2023-04-04T19:14:12.457Z,94120.34
2023-04-04T19:16:14.267Z,94123.03
2023-04-04T19:18:16.562Z,94127.75
2023-04-04T19:20:18.395Z,94122.59
2023-04-04T19:22:20.122Z,94126.34
2023-04-04T19:24:21.668Z,94115.63
2023-04-04T19:26:23.280Z,94122.75
2023-04-04T19:28:24.768Z,94118.50
2023-04-04T19:30:43.068Z,94118.38
2023-04-04T19:32:44.724Z,94121.19
2023-04-04T19:34:46.826Z,94126.31
2023-04-04T19:36:48.328Z,94127.59
2023-04-04T19:38:49.811Z,94127.16
2023-04-04T19:41:11.811Z,94125.75
2023-04-04T19:43:13.818Z,94132.38
2023-04-04T19:45:15.552Z,94136.03
2023-04-04T19:47:18.139Z,94142.47
2023-04-04T19:49:19.756Z,94134.03
2023-04-04T19:51:21.220Z,94132.59
2023-04-04T19:53:23.126Z,94141.41
2023-04-04T19:55:33.862Z,94130.84
2023-04-04T19:57:35.687Z,94129.69
2023-04-04T19:59:40.316Z,94129.78
2023-04-04T20:01:50.283Z,94133.41
2023-04-04T20:04:05.718Z,94124.13
2023-04-04T20:06:08.521Z,94128.03
2023-04-04T20:08:09.984Z,94130.13
2023-04-04T20:10:11.492Z,94134.28
2023-04-04T20:12:14.369Z,94117.38
2023-04-04T20:14:18.966Z,94132.03
2023-04-04T20:16:22.248Z,94124.03
2023-04-04T20:18:24.318Z,94129.91
2023-04-04T20:20:45.772Z,94129.31
2023-04-04T20:22:59.545Z,94127.09
2023-04-04T20:25:01.503Z,94131.69
2023-04-04T20:27:03.956Z,94125.81
2023-04-04T20:29:05.776Z,94131.31
2023-04-04T20:31:10.185Z,94134.00
2023-04-04T20:33:33.181Z,94131.09
2023-04-04T20:35:34.646Z,94131.78
2023-04-04T20:37:36.198Z,94135.56
2023-04-04T20:39:41.904Z,94135.09
2023-04-04T20:41:43.364Z,94145.19
2023-04-04T20:43:49.406Z,94136.28
2023-04-04T20:45:51.156Z,94139.19
2023-04-04T20:47:57.061Z,94134.72
2023-04-04T20:49:58.670Z,94133.16
2023-04-04T20:52:00.422Z,94140.66
2023-04-04T20:54:02.399Z,94140.19
2023-04-04T20:56:06.727Z,94134.09
2023-04-04T20:58:08.565Z,94136.69
2023-04-04T21:00:45.602Z,94136.72
2023-04-04T21:02:47.092Z,94145.50
2023-04-04T21:04:51.357Z,94150.00
2023-04-04T21:06:53.224Z,94142.00
2023-04-04T21:08:54.823Z,94139.06
2023-04-04T21:10:57.429Z,94141.28
2023-04-04T21:13:00.821Z,94139.31
2023-04-04T21:15:02.382Z,94134.38
2023-04-04T21:17:17.685Z,94141.06
2023-04-04T21:19:20.024Z,94143.16
2023-04-04T21:21:23.935Z,94137.44
2023-04-04T21:23:25.544Z,94142.13
2023-04-04T21:25:43.685Z,94149.75
2023-04-04T21:27:45.364Z,94144.97
2023-04-04T21:29:46.849Z,94153.16
2023-04-04T21:31:48.933Z,94153.50
2023-04-04T21:33:50.962Z,94160.53
2023-04-04T21:35:53.025Z,94158.56
2023-04-04T21:37:54.504Z,94166.78
2023-04-04T21:39:56.749Z,94174.03
2023-04-04T21:41:59.358Z,94162.28
2023-04-04T21:44:05.149Z,94153.84
2023-04-04T21:46:06.661Z,94165.94
2023-04-04T21:48:08.272Z,94154.19
2023-04-04T21:50:09.887Z,94163.47
2023-04-04T21:52:11.814Z,94167.00
2023-04-04T21:54:14.440Z,94168.88
2023-04-04T21:56:16.350Z,94165.22
2023-04-04T21:58:17.843Z,94165.94
2023-04-04T22:00:19.553Z,94169.81
2023-04-04T22:02:21.025Z,94165.59
2023-04-04T22:04:22.531Z,94162.88
2023-04-04T22:06:27.504Z,94170.06
2023-04-04T22:08:29.079Z,94178.03
2023-04-04T22:10:31.170Z,94170.06
2023-04-04T22:12:33.418Z,94166.56
2023-04-04T22:14:35.374Z,94161.59
2023-04-04T22:16:39.755Z,94160.66
2023-04-04T22:18:43.557Z,94169.72
2023-04-04T22:20:45.894Z,94178.00
2023-04-04T22:22:47.352Z,94167.09
2023-04-04T22:24:51.050Z,94164.41
2023-04-04T22:26:52.481Z,94161.84
2023-04-04T22:28:54.729Z,94159.38
2023-04-04T22:30:56.278Z,94169.34
2023-04-04T22:33:00.330Z,94167.22
2023-04-04T22:35:02.464Z,94173.22
2023-04-04T22:37:05.520Z,94165.66
2023-04-04T22:39:07.182Z,94166.47
2023-04-04T22:41:08.689Z,94158.16
2023-04-04T22:43:10.507Z,94168.41
2023-04-04T22:45:12.420Z,94154.09
2023-04-04T22:47:14.410Z,94169.72
2023-04-04T22:49:16.350Z,94172.03
2023-04-04T22:51:17.852Z,94168.91
2023-04-04T22:53:24.780Z,94165.38
2023-04-04T22:55:26.870Z,94166.94
2023-04-04T22:57:28.356Z,94163.88
2023-04-04T22:59:30.803Z,94170.84
2023-04-04T23:01:32.397Z,94180.00
2023-04-04T23:03:33.932Z,94173.94
2023-04-04T23:05:35.562Z,94166.34
2023-04-04T23:07:37.531Z,94173.84
2023-04-04T23:09:39.078Z,94169.09
2023-04-04T23:11:40.687Z,94172.69
2023-04-04T23:13:43.440Z,94175.75
2023-04-04T23:15:45.495Z,94172.69
2023-04-04T23:17:47.106Z,94168.81
2023-04-04T23:19:48.707Z,94169.66
2023-04-04T23:21:50.363Z,94169.09
2023-04-04T23:23:52.007Z,94169.06
2023-04-04T23:25:54.365Z,94165.56
2023-04-04T23:27:56.079Z,94168.25
2023-04-04T23:30:00.314Z,94176.13
2023-04-04T23:32:01.852Z,94172.69
2023-04-04T23:34:03.299Z,94165.44
2023-04-04T23:36:05.160Z,94169.56
2023-04-04T23:38:06.663Z,94161.38
2023-04-04T23:40:08.984Z,94170.13
2023-04-04T23:42:10.910Z,94167.44
2023-04-04T23:44:12.611Z,94181.00
2023-04-04T23:46:14.488Z,94178.19
2023-04-04T23:48:16.193Z,94171.31
2023-04-04T23:50:17.718Z,94165.63
2023-04-04T23:52:19.167Z,94169.94
2023-04-04T23:54:20.905Z,94173.56
2023-04-04T23:56:22.655Z,94165.75
2023-04-04T23:58:24.254Z,94159.00
